sensor_id;sensor_type;location;lat;lon;timestamp;P1;durP1;ratioP1;P2;durP2;ratioP2
41709;SDS011;59402;48.396;-4.472;2023-03-12T00:00:02;65.78;;;11.93;;
41709;SDS011;59402;48.396;-4.472;2023-03-12T00:02:33;57.20;;;10.90;;
41709;SDS011;59402;48.396;-4.472;2023-03-12T00:04:59;78.57;;;13.07;;
41709;SDS011;59402;48.396;-4.472;2023-03-12T00:07:25;67.88;;;12.30;;
41709;SDS011;59402;48.396;-4.472;2023-03-12T00:09:50;71.30;;;11.77;;
41709;SDS011;59402;48.396;-4.472;2023-03-12T00:12:16;65.53;;;11.52;;
41709;SDS011;59402;48.396;-4.472;2023-03-12T00:14:42;65.57;;;12.48;;
41709;SDS011;59402;48.396;-4.472;2023-03-12T00:17:07;70.57;;;12.25;;
41709;SDS011;59402;48.396;-4.472;2023-03-12T00:19:33;69.45;;;11.85;;
41709;SDS011;59402;48.396;-4.472;2023-03-12T00:21:59;61.67;;;10.88;;
41709;SDS011;59402;48.396;-4.472;2023-03-12T00:24:24;65.20;;;10.73;;
41709;SDS011;59402;48.396;-4.472;2023-03-12T00:26:50;69.18;;;11.38;;
41709;SDS011;59402;48.396;-4.472;2023-03-12T00:29:16;59.38;;;11.07;;
41709;SDS011;59402;48.396;-4.472;2023-03-12T00:31:42;61.28;;;10.68;;
41709;SDS011;59402;48.396;-4.472;2023-03-12T00:34:08;59.53;;;11.38;;
41709;SDS011;59402;48.396;-4.472;2023-03-12T00:36:34;62.85;;;10.82;;
41709;SDS011;59402;48.396;-4.472;2023-03-12T00:39:00;62.55;;;10.23;;
41709;SDS011;59402;48.396;-4.472;2023-03-12T00:41:26;59.00;;;9.50;;
41709;SDS011;59402;48.396;-4.472;2023-03-12T00:43:52;71.18;;;10.35;;
41709;SDS011;59402;48.396;-4.472;2023-03-12T00:46:18;54.70;;;9.82;;
41709;SDS011;59402;48.396;-4.472;2023-03-12T00:48:44;54.40;;;9.50;;
41709;SDS011;59402;48.396;-4.472;2023-03-12T00:51:10;47.85;;;8.43;;
41709;SDS011;59402;48.396;-4.472;2023-03-12T00:53:36;53.90;;;9.68;;
41709;SDS011;59402;48.396;-4.472;2023-03-12T00:56:02;51.58;;;9.05;;
41709;SDS011;59402;48.396;-4.472;2023-03-12T00:58:29;58.95;;;9.70;;
41709;SDS011;59402;48.396;-4.472;2023-03-12T01:00:55;49.22;;;9.18;;
41709;SDS011;59402;48.396;-4.472;2023-03-12T01:03:21;49.53;;;11.00;;
41709;SDS011;59402;48.396;-4.472;2023-03-12T01:05:47;60.53;;;10.88;;
41709;SDS011;59402;48.396;-4.472;2023-03-12T01:08:18;59.60;;;10.20;;
41709;SDS011;59402;48.396;-4.472;2023-03-12T01:10:44;60.13;;;10.15;;
41709;SDS011;59402;48.396;-4.472;2023-03-12T01:13:10;51.88;;;9.95;;
41709;SDS011;59402;48.396;-4.472;2023-03-12T01:15:36;67.50;;;11.13;;
41709;SDS011;59402;48.396;-4.472;2023-03-12T01:18:02;58.08;;;10.40;;
41709;SDS011;59402;48.396;-4.472;2023-03-12T01:20:28;58.00;;;9.32;;
41709;SDS011;59402;48.396;-4.472;2023-03-12T01:22:54;55.08;;;9.90;;
41709;SDS011;59402;48.396;-4.472;2023-03-12T01:25:19;59.85;;;10.95;;
41709;SDS011;59402;48.396;-4.472;2023-03-12T01:27:46;67.40;;;11.57;;
41709;SDS011;59402;48.396;-4.472;2023-03-12T01:30:12;52.42;;;10.63;;
41709;SDS011;59402;48.396;-4.472;2023-03-12T01:32:38;67.93;;;10.13;;
41709;SDS011;59402;48.396;-4.472;2023-03-12T01:35:04;58.65;;;9.50;;
41709;SDS011;59402;48.396;-4.472;2023-03-12T01:37:31;53.33;;;10.02;;
41709;SDS011;59402;48.396;-4.472;2023-03-12T01:39:57;55.90;;;10.07;;
41709;SDS011;59402;48.396;-4.472;2023-03-12T01:42:23;47.67;;;9.25;;
41709;SDS011;59402;48.396;-4.472;2023-03-12T01:47:27;52.85;;;9.52;;
41709;SDS011;59402;48.396;-4.472;2023-03-12T01:49:56;56.03;;;10.48;;
41709;SDS011;59402;48.396;-4.472;2023-03-12T01:52:24;52.95;;;8.77;;
41709;SDS011;59402;48.396;-4.472;2023-03-12T01:54:54;49.45;;;8.63;;
41709;SDS011;59402;48.396;-4.472;2023-03-12T01:57:40;51.75;;;8.93;;
41709;SDS011;59402;48.396;-4.472;2023-03-12T02:00:17;57.95;;;10.75;;
41709;SDS011;59402;48.396;-4.472;2023-03-12T02:02:48;49.47;;;9.00;;
41709;SDS011;59402;48.396;-4.472;2023-03-12T02:05:36;69.10;;;10.20;;
41709;SDS011;59402;48.396;-4.472;2023-03-12T02:08:08;60.47;;;11.43;;
41709;SDS011;59402;48.396;-4.472;2023-03-12T02:10:36;54.25;;;9.52;;
41709;SDS011;59402;48.396;-4.472;2023-03-12T02:13:02;51.55;;;9.23;;
41709;SDS011;59402;48.396;-4.472;2023-03-12T02:15:28;66.22;;;9.77;;
41709;SDS011;59402;48.396;-4.472;2023-03-12T02:17:55;56.33;;;9.13;;
41709;SDS011;59402;48.396;-4.472;2023-03-12T02:20:27;56.70;;;9.30;;
41709;SDS011;59402;48.396;-4.472;2023-03-12T02:23:07;64.38;;;10.25;;
41709;SDS011;59402;48.396;-4.472;2023-03-12T02:25:36;51.92;;;8.38;;
41709;SDS011;59402;48.396;-4.472;2023-03-12T02:28:05;59.88;;;9.23;;
41709;SDS011;59402;48.396;-4.472;2023-03-12T02:30:34;55.33;;;9.25;;
41709;SDS011;59402;48.396;-4.472;2023-03-12T02:33:02;67.53;;;10.60;;
41709;SDS011;59402;48.396;-4.472;2023-03-12T02:35:31;52.53;;;10.00;;
41709;SDS011;59402;48.396;-4.472;2023-03-12T02:37:56;58.67;;;10.00;;
41709;SDS011;59402;48.396;-4.472;2023-03-12T02:40:38;50.03;;;9.07;;
41709;SDS011;59402;48.396;-4.472;2023-03-12T02:43:06;52.35;;;8.45;;
41709;SDS011;59402;48.396;-4.472;2023-03-12T02:45:34;46.78;;;8.40;;
41709;SDS011;59402;48.396;-4.472;2023-03-12T02:48:01;54.05;;;8.90;;
41709;SDS011;59402;48.396;-4.472;2023-03-12T02:50:28;50.95;;;8.82;;
41709;SDS011;59402;48.396;-4.472;2023-03-12T02:52:53;47.50;;;8.18;;
41709;SDS011;59402;48.396;-4.472;2023-03-12T02:55:19;53.13;;;8.85;;
41709;SDS011;59402;48.396;-4.472;2023-03-12T02:57:45;56.60;;;10.35;;
41709;SDS011;59402;48.396;-4.472;2023-03-12T03:00:13;53.50;;;8.90;;
41709;SDS011;59402;48.396;-4.472;2023-03-12T03:02:43;46.58;;;7.97;;
41709;SDS011;59402;48.396;-4.472;2023-03-12T03:05:10;61.10;;;9.57;;
41709;SDS011;59402;48.396;-4.472;2023-03-12T03:07:36;51.20;;;9.20;;
41709;SDS011;59402;48.396;-4.472;2023-03-12T03:10:02;58.78;;;9.55;;
41709;SDS011;59402;48.396;-4.472;2023-03-12T03:14:56;53.47;;;9.02;;
41709;SDS011;59402;48.396;-4.472;2023-03-12T03:17:23;51.80;;;9.32;;
41709;SDS011;59402;48.396;-4.472;2023-03-12T03:19:50;58.10;;;9.63;;
41709;SDS011;59402;48.396;-4.472;2023-03-12T03:22:16;55.95;;;8.57;;
41709;SDS011;59402;48.396;-4.472;2023-03-12T03:24:43;55.78;;;9.43;;
41709;SDS011;59402;48.396;-4.472;2023-03-12T03:27:10;43.67;;;9.20;;
41709;SDS011;59402;48.396;-4.472;2023-03-12T03:29:36;50.65;;;9.00;;
41709;SDS011;59402;48.396;-4.472;2023-03-12T03:32:02;54.72;;;9.13;;
41709;SDS011;59402;48.396;-4.472;2023-03-12T03:34:28;56.70;;;9.07;;
41709;SDS011;59402;48.396;-4.472;2023-03-12T03:36:54;60.80;;;9.27;;
41709;SDS011;59402;48.396;-4.472;2023-03-12T03:39:21;49.47;;;8.77;;
41709;SDS011;59402;48.396;-4.472;2023-03-12T03:41:47;40.42;;;7.65;;
41709;SDS011;59402;48.396;-4.472;2023-03-12T03:44:17;52.80;;;9.98;;
41709;SDS011;59402;48.396;-4.472;2023-03-12T03:46:43;55.22;;;10.00;;
41709;SDS011;59402;48.396;-4.472;2023-03-12T03:49:10;56.37;;;8.93;;
41709;SDS011;59402;48.396;-4.472;2023-03-12T03:51:38;45.42;;;7.82;;
41709;SDS011;59402;48.396;-4.472;2023-03-12T03:54:08;46.72;;;8.50;;
41709;SDS011;59402;48.396;-4.472;2023-03-12T03:56:34;59.22;;;9.38;;
41709;SDS011;59402;48.396;-4.472;2023-03-12T03:59:02;44.70;;;8.55;;
41709;SDS011;59402;48.396;-4.472;2023-03-12T04:01:29;54.13;;;10.60;;
41709;SDS011;59402;48.396;-4.472;2023-03-12T04:03:56;51.10;;;9.48;;
41709;SDS011;59402;48.396;-4.472;2023-03-12T04:06:22;46.25;;;8.85;;
41709;SDS011;59402;48.396;-4.472;2023-03-12T04:08:48;54.78;;;9.48;;
41709;SDS011;59402;48.396;-4.472;2023-03-12T04:11:19;64.22;;;9.95;;
41709;SDS011;59402;48.396;-4.472;2023-03-12T04:13:46;54.42;;;9.43;;
41709;SDS011;59402;48.396;-4.472;2023-03-12T04:16:15;48.63;;;8.50;;
41709;SDS011;59402;48.396;-4.472;2023-03-12T04:18:41;52.67;;;8.15;;
41709;SDS011;59402;48.396;-4.472;2023-03-12T04:21:07;41.55;;;7.97;;
41709;SDS011;59402;48.396;-4.472;2023-03-12T04:26:00;51.40;;;9.40;;
41709;SDS011;59402;48.396;-4.472;2023-03-12T04:28:28;55.47;;;9.55;;
41709;SDS011;59402;48.396;-4.472;2023-03-12T04:30:57;52.10;;;11.00;;
41709;SDS011;59402;48.396;-4.472;2023-03-12T04:33:30;56.15;;;9.35;;
41709;SDS011;59402;48.396;-4.472;2023-03-12T04:35:58;48.45;;;8.90;;
41709;SDS011;59402;48.396;-4.472;2023-03-12T04:38:25;52.90;;;8.93;;
41709;SDS011;59402;48.396;-4.472;2023-03-12T04:43:25;49.40;;;8.90;;
41709;SDS011;59402;48.396;-4.472;2023-03-12T04:45:51;57.00;;;8.15;;
41709;SDS011;59402;48.396;-4.472;2023-03-12T04:48:17;54.53;;;8.60;;
41709;SDS011;59402;48.396;-4.472;2023-03-12T04:50:44;51.20;;;9.07;;
41709;SDS011;59402;48.396;-4.472;2023-03-12T04:53:09;46.85;;;8.30;;
41709;SDS011;59402;48.396;-4.472;2023-03-12T04:55:35;52.92;;;9.05;;
41709;SDS011;59402;48.396;-4.472;2023-03-12T04:58:01;54.15;;;10.13;;
41709;SDS011;59402;48.396;-4.472;2023-03-12T05:00:27;40.58;;;8.25;;
41709;SDS011;59402;48.396;-4.472;2023-03-12T05:02:53;49.97;;;8.55;;
41709;SDS011;59402;48.396;-4.472;2023-03-12T05:05:19;55.75;;;9.30;;
41709;SDS011;59402;48.396;-4.472;2023-03-12T05:07:45;51.83;;;8.85;;
41709;SDS011;59402;48.396;-4.472;2023-03-12T05:10:11;65.22;;;10.52;;
41709;SDS011;59402;48.396;-4.472;2023-03-12T05:12:37;54.05;;;9.80;;
41709;SDS011;59402;48.396;-4.472;2023-03-12T05:15:03;57.47;;;9.32;;
41709;SDS011;59402;48.396;-4.472;2023-03-12T05:17:29;48.80;;;8.50;;
41709;SDS011;59402;48.396;-4.472;2023-03-12T05:19:55;50.38;;;9.00;;
41709;SDS011;59402;48.396;-4.472;2023-03-12T05:22:20;54.17;;;8.63;;
41709;SDS011;59402;48.396;-4.472;2023-03-12T05:24:46;51.90;;;9.18;;
41709;SDS011;59402;48.396;-4.472;2023-03-12T05:27:12;53.88;;;9.52;;
41709;SDS011;59402;48.396;-4.472;2023-03-12T05:29:38;59.80;;;9.70;;
41709;SDS011;59402;48.396;-4.472;2023-03-12T05:32:05;47.05;;;9.48;;
41709;SDS011;59402;48.396;-4.472;2023-03-12T05:36:58;53.85;;;9.85;;
41709;SDS011;59402;48.396;-4.472;2023-03-12T05:39:26;58.00;;;10.07;;
41709;SDS011;59402;48.396;-4.472;2023-03-12T05:41:56;53.33;;;10.23;;
41709;SDS011;59402;48.396;-4.472;2023-03-12T05:44:22;58.22;;;10.45;;
41709;SDS011;59402;48.396;-4.472;2023-03-12T05:46:52;57.83;;;10.18;;
41709;SDS011;59402;48.396;-4.472;2023-03-12T05:49:22;47.00;;;9.18;;
41709;SDS011;59402;48.396;-4.472;2023-03-12T05:51:48;62.08;;;9.60;;
41709;SDS011;59402;48.396;-4.472;2023-03-12T05:54:16;62.40;;;9.88;;
41709;SDS011;59402;48.396;-4.472;2023-03-12T05:56:42;54.35;;;9.80;;
41709;SDS011;59402;48.396;-4.472;2023-03-12T05:59:08;45.90;;;7.53;;
41709;SDS011;59402;48.396;-4.472;2023-03-12T06:01:35;51.15;;;8.32;;
41709;SDS011;59402;48.396;-4.472;2023-03-12T06:04:03;59.45;;;9.98;;
41709;SDS011;59402;48.396;-4.472;2023-03-12T06:06:30;52.10;;;10.00;;
41709;SDS011;59402;48.396;-4.472;2023-03-12T06:08:57;54.63;;;10.25;;
41709;SDS011;59402;48.396;-4.472;2023-03-12T06:11:23;59.95;;;9.40;;
41709;SDS011;59402;48.396;-4.472;2023-03-12T06:13:49;50.67;;;8.63;;
41709;SDS011;59402;48.396;-4.472;2023-03-12T06:16:20;58.78;;;9.75;;
41709;SDS011;59402;48.396;-4.472;2023-03-12T06:18:48;53.58;;;9.93;;
41709;SDS011;59402;48.396;-4.472;2023-03-12T06:21:17;49.72;;;8.77;;
41709;SDS011;59402;48.396;-4.472;2023-03-12T06:23:46;59.50;;;8.95;;
41709;SDS011;59402;48.396;-4.472;2023-03-12T06:26:19;50.53;;;8.93;;
41709;SDS011;59402;48.396;-4.472;2023-03-12T06:28:45;51.15;;;9.23;;
41709;SDS011;59402;48.396;-4.472;2023-03-12T06:31:12;51.53;;;9.25;;
41709;SDS011;59402;48.396;-4.472;2023-03-12T06:33:38;40.40;;;8.57;;
41709;SDS011;59402;48.396;-4.472;2023-03-12T06:36:04;61.97;;;9.38;;
41709;SDS011;59402;48.396;-4.472;2023-03-12T06:38:31;53.67;;;9.20;;
41709;SDS011;59402;48.396;-4.472;2023-03-12T06:41:04;57.28;;;8.45;;
41709;SDS011;59402;48.396;-4.472;2023-03-12T06:43:33;52.05;;;8.68;;
41709;SDS011;59402;48.396;-4.472;2023-03-12T06:45:59;49.87;;;8.40;;
41709;SDS011;59402;48.396;-4.472;2023-03-12T06:48:27;53.78;;;8.93;;
41709;SDS011;59402;48.396;-4.472;2023-03-12T06:50:53;44.63;;;7.82;;
41709;SDS011;59402;48.396;-4.472;2023-03-12T06:53:20;43.17;;;8.73;;
41709;SDS011;59402;48.396;-4.472;2023-03-12T06:55:47;45.88;;;7.60;;
41709;SDS011;59402;48.396;-4.472;2023-03-12T06:58:14;50.35;;;8.35;;
41709;SDS011;59402;48.396;-4.472;2023-03-12T07:00:40;51.60;;;9.35;;
41709;SDS011;59402;48.396;-4.472;2023-03-12T07:03:05;49.80;;;8.85;;
41709;SDS011;59402;48.396;-4.472;2023-03-12T07:05:31;40.78;;;8.05;;
41709;SDS011;59402;48.396;-4.472;2023-03-12T07:07:57;52.45;;;8.57;;
41709;SDS011;59402;48.396;-4.472;2023-03-12T07:10:23;44.15;;;8.13;;
41709;SDS011;59402;48.396;-4.472;2023-03-12T07:12:49;53.10;;;8.10;;
41709;SDS011;59402;48.396;-4.472;2023-03-12T07:15:15;56.22;;;8.75;;
41709;SDS011;59402;48.396;-4.472;2023-03-12T07:17:41;46.55;;;8.70;;
41709;SDS011;59402;48.396;-4.472;2023-03-12T07:20:07;55.80;;;8.85;;
41709;SDS011;59402;48.396;-4.472;2023-03-12T07:22:33;43.42;;;8.25;;
41709;SDS011;59402;48.396;-4.472;2023-03-12T07:24:59;44.50;;;8.18;;
41709;SDS011;59402;48.396;-4.472;2023-03-12T07:27:24;55.25;;;8.23;;
41709;SDS011;59402;48.396;-4.472;2023-03-12T07:29:50;43.08;;;8.23;;
41709;SDS011;59402;48.396;-4.472;2023-03-12T07:32:16;54.30;;;8.45;;
41709;SDS011;59402;48.396;-4.472;2023-03-12T07:34:42;52.80;;;8.77;;
41709;SDS011;59402;48.396;-4.472;2023-03-12T07:37:08;40.28;;;7.40;;
41709;SDS011;59402;48.396;-4.472;2023-03-12T07:39:34;42.03;;;7.82;;
41709;SDS011;59402;48.396;-4.472;2023-03-12T07:42:00;48.05;;;7.63;;
41709;SDS011;59402;48.396;-4.472;2023-03-12T07:44:27;53.50;;;7.60;;
41709;SDS011;59402;48.396;-4.472;2023-03-12T07:46:53;49.60;;;7.88;;
41709;SDS011;59402;48.396;-4.472;2023-03-12T07:49:18;54.08;;;8.77;;
41709;SDS011;59402;48.396;-4.472;2023-03-12T07:51:44;50.25;;;8.43;;
41709;SDS011;59402;48.396;-4.472;2023-03-12T07:54:10;52.63;;;8.98;;
41709;SDS011;59402;48.396;-4.472;2023-03-12T07:56:36;39.42;;;8.30;;
41709;SDS011;59402;48.396;-4.472;2023-03-12T07:59:02;52.78;;;9.18;;
41709;SDS011;59402;48.396;-4.472;2023-03-12T08:01:28;47.80;;;8.60;;
41709;SDS011;59402;48.396;-4.472;2023-03-12T08:03:57;52.90;;;7.97;;
41709;SDS011;59402;48.396;-4.472;2023-03-12T08:06:23;46.35;;;8.68;;
41709;SDS011;59402;48.396;-4.472;2023-03-12T08:08:49;49.67;;;9.70;;
41709;SDS011;59402;48.396;-4.472;2023-03-12T08:11:15;49.65;;;8.38;;
41709;SDS011;59402;48.396;-4.472;2023-03-12T08:13:42;56.67;;;9.32;;
41709;SDS011;59402;48.396;-4.472;2023-03-12T08:16:07;52.83;;;9.10;;
41709;SDS011;59402;48.396;-4.472;2023-03-12T08:18:33;48.40;;;8.68;;
41709;SDS011;59402;48.396;-4.472;2023-03-12T08:20:59;45.53;;;7.90;;
41709;SDS011;59402;48.396;-4.472;2023-03-12T08:23:25;49.50;;;9.07;;
41709;SDS011;59402;48.396;-4.472;2023-03-12T08:25:51;52.63;;;8.50;;
41709;SDS011;59402;48.396;-4.472;2023-03-12T08:28:18;54.93;;;9.30;;
41709;SDS011;59402;48.396;-4.472;2023-03-12T08:30:48;54.10;;;8.68;;
41709;SDS011;59402;48.396;-4.472;2023-03-12T08:33:16;43.88;;;8.48;;
41709;SDS011;59402;48.396;-4.472;2023-03-12T08:35:41;47.00;;;8.68;;
41709;SDS011;59402;48.396;-4.472;2023-03-12T08:38:07;36.28;;;6.85;;
41709;SDS011;59402;48.396;-4.472;2023-03-12T08:40:33;38.72;;;7.85;;
41709;SDS011;59402;48.396;-4.472;2023-03-12T08:43:05;54.33;;;9.05;;
41709;SDS011;59402;48.396;-4.472;2023-03-12T08:45:32;47.58;;;8.73;;
41709;SDS011;59402;48.396;-4.472;2023-03-12T08:48:00;48.95;;;8.57;;
41709;SDS011;59402;48.396;-4.472;2023-03-12T08:50:26;50.88;;;8.05;;
41709;SDS011;59402;48.396;-4.472;2023-03-12T08:52:55;49.60;;;8.15;;
41709;SDS011;59402;48.396;-4.472;2023-03-12T08:55:21;46.35;;;8.05;;
41709;SDS011;59402;48.396;-4.472;2023-03-12T08:57:47;44.67;;;7.95;;
41709;SDS011;59402;48.396;-4.472;2023-03-12T09:00:13;44.72;;;8.07;;
41709;SDS011;59402;48.396;-4.472;2023-03-12T09:02:39;43.33;;;7.95;;
41709;SDS011;59402;48.396;-4.472;2023-03-12T09:05:05;51.35;;;7.53;;
41709;SDS011;59402;48.396;-4.472;2023-03-12T09:07:31;44.50;;;8.13;;
41709;SDS011;59402;48.396;-4.472;2023-03-12T09:09:57;45.58;;;8.45;;
41709;SDS011;59402;48.396;-4.472;2023-03-12T09:12:22;40.90;;;7.25;;
41709;SDS011;59402;48.396;-4.472;2023-03-12T09:14:49;45.42;;;8.27;;
41709;SDS011;59402;48.396;-4.472;2023-03-12T09:17:15;48.93;;;7.93;;
41709;SDS011;59402;48.396;-4.472;2023-03-12T09:19:41;44.72;;;8.20;;
41709;SDS011;59402;48.396;-4.472;2023-03-12T09:22:07;53.65;;;9.65;;
41709;SDS011;59402;48.396;-4.472;2023-03-12T09:24:32;52.20;;;8.77;;
41709;SDS011;59402;48.396;-4.472;2023-03-12T09:26:58;50.75;;;8.65;;
41709;SDS011;59402;48.396;-4.472;2023-03-12T09:29:25;46.45;;;9.85;;
41709;SDS011;59402;48.396;-4.472;2023-03-12T09:31:51;54.22;;;8.27;;
41709;SDS011;59402;48.396;-4.472;2023-03-12T09:34:16;47.95;;;7.72;;
41709;SDS011;59402;48.396;-4.472;2023-03-12T09:36:42;54.83;;;8.13;;
41709;SDS011;59402;48.396;-4.472;2023-03-12T09:39:08;54.47;;;8.82;;
41709;SDS011;59402;48.396;-4.472;2023-03-12T09:41:35;42.40;;;8.38;;
41709;SDS011;59402;48.396;-4.472;2023-03-12T09:44:08;36.63;;;7.20;;
41709;SDS011;59402;48.396;-4.472;2023-03-12T09:46:47;46.90;;;8.98;;
41709;SDS011;59402;48.396;-4.472;2023-03-12T09:51:45;50.70;;;9.43;;
41709;SDS011;59402;48.396;-4.472;2023-03-12T09:54:24;55.70;;;8.20;;
41709;SDS011;59402;48.396;-4.472;2023-03-12T09:57:13;54.70;;;9.02;;
41709;SDS011;59402;48.396;-4.472;2023-03-12T09:59:48;51.05;;;9.38;;
41709;SDS011;59402;48.396;-4.472;2023-03-12T10:05:10;50.33;;;10.02;;
41709;SDS011;59402;48.396;-4.472;2023-03-12T10:07:58;47.58;;;8.63;;
41709;SDS011;59402;48.396;-4.472;2023-03-12T10:10:36;49.13;;;9.32;;
41709;SDS011;59402;48.396;-4.472;2023-03-12T10:26:53;46.10;;;8.40;;
41709;SDS011;59402;48.396;-4.472;2023-03-12T10:29:27;51.08;;;8.52;;
41709;SDS011;59402;48.396;-4.472;2023-03-12T10:32:03;48.38;;;8.65;;
41709;SDS011;59402;48.396;-4.472;2023-03-12T10:36:58;47.38;;;8.63;;
41709;SDS011;59402;48.396;-4.472;2023-03-12T10:39:27;38.85;;;8.25;;
41709;SDS011;59402;48.396;-4.472;2023-03-12T10:41:53;49.60;;;8.52;;
41709;SDS011;59402;48.396;-4.472;2023-03-12T10:44:23;38.92;;;7.75;;
41709;SDS011;59402;48.396;-4.472;2023-03-12T10:47:04;36.83;;;7.55;;
41709;SDS011;59402;48.396;-4.472;2023-03-12T10:49:35;35.53;;;6.43;;
41709;SDS011;59402;48.396;-4.472;2023-03-12T10:52:03;35.28;;;7.20;;
41709;SDS011;59402;48.396;-4.472;2023-03-12T10:54:46;38.95;;;6.45;;
41709;SDS011;59402;48.396;-4.472;2023-03-12T10:57:17;42.22;;;6.60;;
41709;SDS011;59402;48.396;-4.472;2023-03-12T10:59:44;40.33;;;7.05;;
41709;SDS011;59402;48.396;-4.472;2023-03-12T11:04:57;31.05;;;6.85;;
41709;SDS011;59402;48.396;-4.472;2023-03-12T11:07:26;34.05;;;6.57;;
41709;SDS011;59402;48.396;-4.472;2023-03-12T11:12:37;32.45;;;6.18;;
41709;SDS011;59402;48.396;-4.472;2023-03-12T11:17:45;27.27;;;5.10;;
41709;SDS011;59402;48.396;-4.472;2023-03-12T11:20:44;33.35;;;6.35;;
41709;SDS011;59402;48.396;-4.472;2023-03-12T11:25:54;32.45;;;5.47;;
41709;SDS011;59402;48.396;-4.472;2023-03-12T11:28:23;34.28;;;5.90;;
41709;SDS011;59402;48.396;-4.472;2023-03-12T11:30:52;27.23;;;5.13;;
41709;SDS011;59402;48.396;-4.472;2023-03-12T11:33:18;31.17;;;6.20;;
41709;SDS011;59402;48.396;-4.472;2023-03-12T11:35:47;29.90;;;5.55;;
41709;SDS011;59402;48.396;-4.472;2023-03-12T11:38:37;28.45;;;5.25;;
41709;SDS011;59402;48.396;-4.472;2023-03-12T11:47:07;26.25;;;5.47;;
41709;SDS011;59402;48.396;-4.472;2023-03-12T11:57:32;29.55;;;5.22;;
41709;SDS011;59402;48.396;-4.472;2023-03-12T12:00:09;124.35;;;8.05;;
41709;SDS011;59402;48.396;-4.472;2023-03-12T12:26:12;179.45;;;8.82;;
41709;SDS011;59402;48.396;-4.472;2023-03-12T12:34:03;264.10;;;11.45;;
41709;SDS011;59402;48.396;-4.472;2023-03-12T12:36:52;186.77;;;8.00;;
41709;SDS011;59402;48.396;-4.472;2023-03-12T12:39:31;136.50;;;7.10;;
41709;SDS011;59402;48.396;-4.472;2023-03-12T12:42:01;183.50;;;9.10;;
41709;SDS011;59402;48.396;-4.472;2023-03-12T12:44:31;146.07;;;6.93;;
41709;SDS011;59402;48.396;-4.472;2023-03-12T12:47:01;151.45;;;7.18;;
41709;SDS011;59402;48.396;-4.472;2023-03-12T12:52:00;158.65;;;7.07;;
41709;SDS011;59402;48.396;-4.472;2023-03-12T12:54:34;92.47;;;4.22;;
41709;SDS011;59402;48.396;-4.472;2023-03-12T13:03:09;16.20;;;1.67;;
41709;SDS011;59402;48.396;-4.472;2023-03-12T13:05:52;7.63;;;2.53;;
41709;SDS011;59402;48.396;-4.472;2023-03-12T13:13:38;7.25;;;1.40;;
41709;SDS011;59402;48.396;-4.472;2023-03-12T13:18:56;14.70;;;1.90;;
41709;SDS011;59402;48.396;-4.472;2023-03-12T13:24:04;13.20;;;2.95;;
41709;SDS011;59402;48.396;-4.472;2023-03-12T13:26:41;8.60;;;3.30;;
41709;SDS011;59402;48.396;-4.472;2023-03-12T13:31:53;13.20;;;4.35;;
41709;SDS011;59402;48.396;-4.472;2023-03-12T13:36:46;25.75;;;5.82;;
41709;SDS011;59402;48.396;-4.472;2023-03-12T13:41:41;18.15;;;4.43;;
41709;SDS011;59402;48.396;-4.472;2023-03-12T13:47:01;20.55;;;2.58;;
41709;SDS011;59402;48.396;-4.472;2023-03-12T13:49:50;101.13;;;5.38;;
41709;SDS011;59402;48.396;-4.472;2023-03-12T13:52:27;33.33;;;3.63;;
41709;SDS011;59402;48.396;-4.472;2023-03-12T13:57:47;48.55;;;3.30;;
41709;SDS011;59402;48.396;-4.472;2023-03-12T14:02:52;69.15;;;4.28;;
41709;SDS011;59402;48.396;-4.472;2023-03-12T14:05:21;56.85;;;3.35;;
41709;SDS011;59402;48.396;-4.472;2023-03-12T14:07:53;27.25;;;2.50;;
41709;SDS011;59402;48.396;-4.472;2023-03-12T14:16:42;96.35;;;6.10;;
41709;SDS011;59402;48.396;-4.472;2023-03-12T14:19:13;63.20;;;5.25;;
41709;SDS011;59402;48.396;-4.472;2023-03-12T14:21:42;175.57;;;10.80;;
41709;SDS011;59402;48.396;-4.472;2023-03-12T14:24:28;239.90;;;11.30;;
41709;SDS011;59402;48.396;-4.472;2023-03-12T14:27:03;167.52;;;8.85;;
41709;SDS011;59402;48.396;-4.472;2023-03-12T14:29:34;182.20;;;10.02;;
41709;SDS011;59402;48.396;-4.472;2023-03-12T14:32:09;125.15;;;6.47;;
41709;SDS011;59402;48.396;-4.472;2023-03-12T14:34:46;158.02;;;11.00;;
41709;SDS011;59402;48.396;-4.472;2023-03-12T14:37:32;41.65;;;2.53;;
41709;SDS011;59402;48.396;-4.472;2023-03-12T14:40:05;16.20;;;1.83;;
41709;SDS011;59402;48.396;-4.472;2023-03-12T14:42:33;58.67;;;3.40;;
41709;SDS011;59402;48.396;-4.472;2023-03-12T14:45:10;11.70;;;2.70;;
41709;SDS011;59402;48.396;-4.472;2023-03-12T14:47:59;13.55;;;1.80;;
41709;SDS011;59402;48.396;-4.472;2023-03-12T14:52:51;35.22;;;3.42;;
41709;SDS011;59402;48.396;-4.472;2023-03-12T14:55:21;174.95;;;9.52;;
41709;SDS011;59402;48.396;-4.472;2023-03-12T14:57:49;101.47;;;6.00;;
41709;SDS011;59402;48.396;-4.472;2023-03-12T15:00:27;135.70;;;7.57;;
41709;SDS011;59402;48.396;-4.472;2023-03-12T15:02:53;65.55;;;4.72;;
41709;SDS011;59402;48.396;-4.472;2023-03-12T15:05:21;33.28;;;4.03;;
41709;SDS011;59402;48.396;-4.472;2023-03-12T15:07:47;20.88;;;3.67;;
41709;SDS011;59402;48.396;-4.472;2023-03-12T15:10:24;11.40;;;2.70;;
41709;SDS011;59402;48.396;-4.472;2023-03-12T15:12:51;16.52;;;2.55;;
41709;SDS011;59402;48.396;-4.472;2023-03-12T15:18:10;40.72;;;3.88;;
41709;SDS011;59402;48.396;-4.472;2023-03-12T15:20:38;80.15;;;5.40;;
41709;SDS011;59402;48.396;-4.472;2023-03-12T15:23:05;194.32;;;10.38;;
41709;SDS011;59402;48.396;-4.472;2023-03-12T15:25:35;239.20;;;12.82;;
41709;SDS011;59402;48.396;-4.472;2023-03-12T15:28:05;226.88;;;12.32;;
41709;SDS011;59402;48.396;-4.472;2023-03-12T15:31:05;335.58;;;15.85;;
41709;SDS011;59402;48.396;-4.472;2023-03-12T15:33:37;385.52;;;20.75;;
41709;SDS011;59402;48.396;-4.472;2023-03-12T15:38:51;318.67;;;17.80;;
41709;SDS011;59402;48.396;-4.472;2023-03-12T15:41:20;417.58;;;22.13;;
41709;SDS011;59402;48.396;-4.472;2023-03-12T15:46:53;214.15;;;14.63;;
41709;SDS011;59402;48.396;-4.472;2023-03-12T15:49:23;49.40;;;8.43;;
41709;SDS011;59402;48.396;-4.472;2023-03-12T15:54:28;46.97;;;10.70;;
41709;SDS011;59402;48.396;-4.472;2023-03-12T15:57:09;63.88;;;10.55;;
41709;SDS011;59402;48.396;-4.472;2023-03-12T15:59:40;47.35;;;10.13;;
41709;SDS011;59402;48.396;-4.472;2023-03-12T16:02:08;56.20;;;11.60;;
41709;SDS011;59402;48.396;-4.472;2023-03-12T16:04:35;57.97;;;11.57;;
41709;SDS011;59402;48.396;-4.472;2023-03-12T16:07:00;68.85;;;13.40;;
41709;SDS011;59402;48.396;-4.472;2023-03-12T16:09:26;57.40;;;12.82;;
41709;SDS011;59402;48.396;-4.472;2023-03-12T16:11:53;57.30;;;13.80;;
41709;SDS011;59402;48.396;-4.472;2023-03-12T16:14:31;60.30;;;13.48;;
41709;SDS011;59402;48.396;-4.472;2023-03-12T16:17:00;75.15;;;13.65;;
41709;SDS011;59402;48.396;-4.472;2023-03-12T16:19:27;72.65;;;16.05;;
41709;SDS011;59402;48.396;-4.472;2023-03-12T16:24:19;66.95;;;15.30;;
41709;SDS011;59402;48.396;-4.472;2023-03-12T16:26:47;73.32;;;17.52;;
41709;SDS011;59402;48.396;-4.472;2023-03-12T16:29:16;78.20;;;16.02;;
41709;SDS011;59402;48.396;-4.472;2023-03-12T16:31:42;73.15;;;15.57;;
41709;SDS011;59402;48.396;-4.472;2023-03-12T16:34:09;60.10;;;14.75;;
41709;SDS011;59402;48.396;-4.472;2023-03-12T16:36:35;54.92;;;13.90;;
41709;SDS011;59402;48.396;-4.472;2023-03-12T16:39:02;80.38;;;16.30;;
41709;SDS011;59402;48.396;-4.472;2023-03-12T16:41:28;77.85;;;14.40;;
41709;SDS011;59402;48.396;-4.472;2023-03-12T16:43:56;75.07;;;15.35;;
41709;SDS011;59402;48.396;-4.472;2023-03-12T16:49:18;76.00;;;16.15;;
41709;SDS011;59402;48.396;-4.472;2023-03-12T16:51:45;69.67;;;14.50;;
41709;SDS011;59402;48.396;-4.472;2023-03-12T16:54:11;77.25;;;15.10;;